Time;durP1;ratioP1;P1;durP2;ratioP2;P2;SDS_P1;SDS_P2;PMS_P1;PMS_P2;Temp;Humidity;BMP_temperature;BMP_pressure;BME280_temperature;BME280_humidity;BME280_pressure;Samples;Min_cycle;Max_cycle;Signal;HPM_P1;HPM_P2
2022/08/24 00:00:48;;;;;;;3.20;2.90;;;19.00;94.00;;;;;;5072506;28;20039;-69
2022/08/24 00:03:13;;;;;;;2.60;2.40;;;19.00;94.30;;;;;;5074250;28;20115;-70
2022/08/24 00:05:39;;;;;;;4.95;2.90;;;18.90;94.60;;;;;;5073662;28;20038;-69
2022/08/24 00:08:05;;;;;;;4.07;2.60;;;18.80;94.80;;;;;;5071166;28;20040;-69
2022/08/24 00:10:31;;;;;;;4.35;2.90;;;18.80;95.00;;;;;;5072890;28;20075;-69
2022/08/24 00:12:57;;;;;;;3.22;2.47;;;18.80;95.20;;;;;;5073078;28;20043;-69
2022/08/24 00:15:23;;;;;;;6.28;2.50;;;18.80;95.40;;;;;;5065723;28;20032;-69
2022/08/24 00:17:49;;;;;;;3.78;2.83;;;18.70;95.50;;;;;;5073362;28;20033;-69
2022/08/24 00:20:15;;;;;;;3.40;2.58;;;18.70;95.70;;;;;;5054581;28;20039;-69
2022/08/24 00:22:41;;;;;;;3.38;2.50;;;18.70;95.90;;;;;;5072936;28;20025;-69
2022/08/24 00:25:09;;;;;;;4.70;2.65;;;18.70;96.00;;;;;;5070087;28;20447;-70
2022/08/24 00:27:35;;;;;;;5.35;2.60;;;18.60;96.40;;;;;;5072667;28;20111;-69
2022/08/24 00:30:04;;;;;;;2.97;2.78;;;18.50;96.60;;;;;;5072699;28;20465;-69
2022/08/24 00:32:30;;;;;;;3.10;2.72;;;18.50;96.80;;;;;;5055689;28;20032;-69
2022/08/24 00:34:55;;;;;;;3.45;2.42;;;18.40;97.10;;;;;;5072928;28;20029;-69
2022/08/24 00:37:21;;;;;;;5.47;3.60;;;18.30;97.40;;;;;;5071116;28;20480;-69
2022/08/24 00:39:47;;;;;;;3.70;2.90;;;18.30;97.90;;;;;;5072909;28;20032;-69
2022/08/24 00:42:15;;;;;;;3.13;2.80;;;18.20;98.10;;;;;;5070534;28;20415;-69
2022/08/24 00:44:40;;;;;;;3.33;2.53;;;18.20;98.40;;;;;;5072826;28;20040;-68
2022/08/24 00:47:31;;;;;;;5.75;2.92;;;18.10;98.70;;;;;;5072729;28;20037;-69
2022/08/24 00:50:02;;;;;;;2.70;2.50;;;18.00;99.00;;;;;;5072315;28;20028;-69
2022/08/24 00:52:48;;;;;;;4.40;2.45;;;18.00;99.30;;;;;;5073338;28;20077;-69
2022/08/24 00:55:22;;;;;;;3.20;2.50;;;17.90;99.60;;;;;;5073740;28;20038;-68
2022/08/24 00:57:54;;;;;;;2.85;2.50;;;17.90;99.90;;;;;;5067577;28;20037;-68
2022/08/24 01:00:27;;;;;;;2.92;2.60;;;17.90;99.90;;;;;;5073468;28;20036;-70
2022/08/24 01:03:03;;;;;;;2.83;2.47;;;17.80;99.90;;;;;;5072224;28;20056;-69
2022/08/24 01:05:30;;;;;;;3.03;2.78;;;17.80;99.90;;;;;;5073224;28;20064;-69
2022/08/24 01:07:57;;;;;;;5.40;2.83;;;17.80;99.90;;;;;;5070807;28;20552;-70
2022/08/24 01:10:29;;;;;;;2.92;2.70;;;17.80;99.90;;;;;;5073275;28;20042;-69
2022/08/24 01:12:57;;;;;;;2.78;2.47;;;17.70;99.90;;;;;;5070081;28;20028;-69
2022/08/24 01:15:23;;;;;;;2.75;2.22;;;17.70;99.90;;;;;;5073086;28;20486;-69
2022/08/24 01:20:34;;;;;;;4.47;2.70;;;17.60;99.90;;;;;;5072916;28;20447;-70
2022/08/24 01:23:09;;;;;;;3.10;2.50;;;17.50;99.90;;;;;;5072159;28;20515;-70
2022/08/24 01:25:37;;;;;;;3.17;2.47;;;17.50;99.90;;;;;;5071551;28;20103;-70
2022/08/24 01:28:09;;;;;;;2.97;2.40;;;17.50;99.90;;;;;;5070683;28;20028;-70
2022/08/24 01:30:34;;;;;;;3.45;2.30;;;17.50;99.90;;;;;;5052991;28;20121;-69
2022/08/24 01:33:06;;;;;;;3.92;2.50;;;17.40;99.90;;;;;;5071957;28;20103;-69
2022/08/24 01:35:34;;;;;;;3.53;2.35;;;17.30;99.90;;;;;;5072427;28;20073;-69
2022/08/24 01:38:03;;;;;;;3.95;2.67;;;17.30;99.90;;;;;;5070460;28;20040;-69
2022/08/24 01:40:36;;;;;;;3.22;2.72;;;17.30;99.90;;;;;;5072422;28;20024;-70
2022/08/24 01:43:04;;;;;;;2.65;2.20;;;17.20;99.90;;;;;;5071542;28;20370;-69
2022/08/24 01:45:30;;;;;;;2.95;2.17;;;17.20;99.90;;;;;;5071473;28;20032;-69
2022/08/24 01:47:57;;;;;;;2.17;1.92;;;17.10;99.90;;;;;;5068077;28;20032;-69
2022/08/24 01:50:22;;;;;;;2.20;2.08;;;17.10;99.90;;;;;;5072358;28;20028;-69
2022/08/24 01:52:48;;;;;;;3.53;2.50;;;17.10;99.90;;;;;;5071411;28;20159;-70
2022/08/24 01:55:15;;;;;;;6.15;3.08;;;17.10;99.90;;;;;;5062537;28;20363;-70
2022/08/24 01:57:42;;;;;;;3.90;2.42;;;17.10;99.90;;;;;;5071180;28;20041;-70
2022/08/24 02:00:13;;;;;;;5.45;2.92;;;17.10;99.90;;;;;;5071882;28;20492;-70
2022/08/24 02:02:42;;;;;;;4.65;2.90;;;17.10;99.90;;;;;;5069091;28;20125;-69
2022/08/24 02:05:10;;;;;;;4.10;2.58;;;17.20;99.90;;;;;;5069888;28;20494;-70
2022/08/24 02:07:35;;;;;;;2.70;2.35;;;17.20;99.90;;;;;;5071830;28;20082;-70
2022/08/24 02:10:01;;;;;;;3.85;2.45;;;17.20;99.90;;;;;;5070894;28;20033;-70
2022/08/24 02:12:29;;;;;;;5.22;3.22;;;17.10;99.90;;;;;;5053733;28;20044;-70
2022/08/24 02:14:55;;;;;;;2.92;2.38;;;17.10;99.90;;;;;;5069845;28;20090;-67
2022/08/24 02:17:20;;;;;;;2.75;2.25;;;17.00;99.90;;;;;;5071946;28;20041;-70
2022/08/24 02:19:47;;;;;;;3.72;2.70;;;17.00;99.90;;;;;;5068419;28;20032;-68
2022/08/24 02:22:15;;;;;;;3.35;2.45;;;16.90;99.90;;;;;;5071758;28;20036;-68
2022/08/24 02:24:41;;;;;;;4.93;2.88;;;16.90;99.90;;;;;;5070183;28;20032;-68
2022/08/24 02:27:07;;;;;;;2.78;2.38;;;16.80;99.90;;;;;;5071829;28;20506;-70
2022/08/24 02:29:32;;;;;;;2.65;2.45;;;16.70;99.90;;;;;;5071579;28;20033;-69
2022/08/24 02:31:58;;;;;;;2.97;2.42;;;16.70;99.90;;;;;;5071088;28;20028;-69
2022/08/24 02:34:26;;;;;;;3.25;2.50;;;16.70;99.90;;;;;;5070488;28;20028;-69
2022/08/24 02:36:52;;;;;;;3.58;2.78;;;16.70;99.90;;;;;;5068367;28;20163;-70
2022/08/24 02:39:18;;;;;;;3.67;2.92;;;16.60;99.90;;;;;;5070916;28;20119;-69
2022/08/24 02:41:44;;;;;;;4.82;2.70;;;16.70;99.90;;;;;;5070980;28;20033;-68
2022/08/24 02:44:10;;;;;;;4.32;2.75;;;16.70;99.90;;;;;;5069972;28;20036;-69
2022/08/24 02:46:35;;;;;;;6.25;3.17;;;16.70;99.90;;;;;;5071460;28;20039;-69
2022/08/24 02:49:02;;;;;;;5.60;3.28;;;16.70;99.90;;;;;;5070217;28;20040;-70
2022/08/24 02:51:33;;;;;;;4.07;3.20;;;16.70;99.90;;;;;;5070402;28;20107;-71
2022/08/24 02:54:00;;;;;;;5.07;3.25;;;16.60;99.90;;;;;;5070454;28;20340;-70
2022/08/24 02:56:30;;;;;;;3.30;3.00;;;16.60;99.90;;;;;;5066045;28;20396;-69
2022/08/24 02:58:58;;;;;;;6.18;3.63;;;16.60;99.90;;;;;;5070494;28;20032;-69
2022/08/24 03:01:25;;;;;;;2.70;2.50;;;16.60;99.90;;;;;;5069198;28;20080;-69
2022/08/24 03:03:50;;;;;;;2.70;2.20;;;16.50;99.90;;;;;;5069962;28;20448;-70
2022/08/24 03:06:17;;;;;;;5.45;2.70;;;16.50;99.90;;;;;;5071162;28;20028;-71
2022/08/24 03:08:44;;;;;;;3.85;2.97;;;16.40;99.90;;;;;;5070207;28;20157;-70
2022/08/24 03:11:11;;;;;;;4.85;2.67;;;16.50;99.90;;;;;;5070218;28;20037;-70
2022/08/24 03:13:37;;;;;;;5.30;3.03;;;16.50;99.90;;;;;;5062420;28;20063;-70
2022/08/24 03:16:04;;;;;;;4.03;3.45;;;16.40;99.90;;;;;;5067054;28;20446;-71
2022/08/24 03:18:31;;;;;;;4.43;3.15;;;16.40;99.90;;;;;;5070670;28;20393;-70
2022/08/24 03:21:01;;;;;;;3.53;3.08;;;16.40;99.90;;;;;;5067528;28;20430;-69
2022/08/24 03:23:27;;;;;;;3.25;2.88;;;16.40;99.90;;;;;;5062311;28;20466;-69
2022/08/24 03:25:55;;;;;;;3.38;2.90;;;16.40;99.90;;;;;;5063992;28;20029;-69
2022/08/24 03:28:22;;;;;;;3.80;3.08;;;16.40;99.90;;;;;;5069736;28;20041;-70
2022/08/24 03:30:49;;;;;;;4.18;2.88;;;16.40;99.90;;;;;;5070199;28;20078;-68
2022/08/24 03:33:14;;;;;;;6.35;3.47;;;16.40;99.90;;;;;;5069832;28;20024;-70
2022/08/24 03:35:40;;;;;;;4.55;3.17;;;16.30;99.90;;;;;;5051855;28;20358;-70
2022/08/24 03:38:06;;;;;;;7.20;3.50;;;16.40;99.90;;;;;;5070280;28;20451;-70
2022/08/24 03:40:33;;;;;;;7.05;3.80;;;16.40;99.90;;;;;;5070895;28;20422;-70
2022/08/24 03:43:00;;;;;;;5.65;3.42;;;16.30;99.90;;;;;;5066285;28;20157;-69
2022/08/24 03:45:26;;;;;;;4.78;3.13;;;16.30;99.90;;;;;;5070773;28;20025;-69
2022/08/24 03:47:52;;;;;;;5.65;3.10;;;16.40;99.90;;;;;;5069454;28;20470;-70
2022/08/24 03:50:19;;;;;;;4.07;2.90;;;16.30;99.90;;;;;;5069525;28;20092;-70
2022/08/24 03:52:45;;;;;;;4.60;3.15;;;16.30;99.90;;;;;;5068974;28;20028;-69
2022/08/24 03:55:12;;;;;;;4.60;3.10;;;16.30;99.90;;;;;;5068910;28;20426;-69
2022/08/24 03:57:38;;;;;;;3.92;3.15;;;16.30;99.90;;;;;;5068459;28;20051;-69
2022/08/24 04:00:07;;;;;;;5.25;3.88;;;16.20;99.90;;;;;;5065085;28;20021;-69
2022/08/24 04:02:33;;;;;;;3.72;3.22;;;16.20;99.90;;;;;;5068429;28;20033;-71
2022/08/24 04:04:59;;;;;;;4.97;3.75;;;16.10;99.90;;;;;;5068299;28;20031;-70
2022/08/24 04:07:24;;;;;;;5.57;3.25;;;16.10;99.90;;;;;;5067054;28;21399;-70
2022/08/24 04:09:50;;;;;;;3.55;3.22;;;16.10;99.90;;;;;;5067606;28;20078;-70
2022/08/24 04:12:18;;;;;;;4.60;3.38;;;;;;;;;;5068852;28;20029;-70
2022/08/24 04:14:44;;;;;;;3.83;3.45;;;;;;;;;;5068590;28;20038;-69
2022/08/24 04:17:11;;;;;;;5.13;3.63;;;;;;;;;;5065260;28;20040;-70
2022/08/24 04:19:56;;;;;;;5.47;3.75;;;;;;;;;;5071270;28;20021;-69
2022/08/24 04:22:22;;;;;;;5.22;3.90;;;;;;;;;;5065654;28;20410;-70
2022/08/24 04:24:48;;;;;;;5.40;3.80;;;;;;;;;;5071446;28;20112;-70
2022/08/24 04:27:14;;;;;;;4.85;3.78;;;;;;;;;;5066929;28;20104;-70
2022/08/24 04:29:40;;;;;;;3.70;3.05;;;16.10;99.90;;;;;;5063864;28;21100;-71
2022/08/24 04:32:06;;;;;;;5.85;4.00;;;16.00;99.90;;;;;;5070894;28;20031;-71
2022/08/24 04:34:32;;;;;;;5.03;3.85;;;16.10;99.90;;;;;;5071710;28;20535;-71
2022/08/24 04:36:58;;;;;;;6.78;4.07;;;16.00;99.90;;;;;;5063993;28;20048;-71
2022/08/24 04:39:23;;;;;;;4.85;4.03;;;16.00;99.90;;;;;;5062559;28;20063;-71
2022/08/24 04:41:49;;;;;;;4.00;3.60;;;16.10;99.90;;;;;;5070717;28;20020;-70
2022/08/24 04:44:14;;;;;;;8.18;3.63;;;16.10;99.90;;;;;;5072019;28;20143;-69
2022/08/24 04:46:40;;;;;;;6.57;4.00;;;16.10;99.90;;;;;;5068552;28;20048;-70
2022/08/24 04:49:07;;;;;;;6.45;4.15;;;16.10;99.90;;;;;;5069085;28;20033;-69
2022/08/24 04:51:33;;;;;;;6.90;4.07;;;16.10;99.90;;;;;;5064333;28;20033;-69
2022/08/24 04:53:59;;;;;;;5.07;3.70;;;16.20;99.90;;;;;;5068353;28;20094;-70
2022/08/24 04:56:25;;;;;;;5.70;3.92;;;16.20;99.90;;;;;;5070329;28;20039;-69
2022/08/24 04:58:53;;;;;;;5.30;3.88;;;16.20;99.90;;;;;;5064297;28;20033;-70
2022/08/24 05:01:21;;;;;;;3.80;3.45;;;16.30;99.90;;;;;;5062275;28;20487;-70
2022/08/24 05:03:49;;;;;;;6.85;3.47;;;16.30;99.90;;;;;;5063748;28;20025;-69
2022/08/24 05:06:17;;;;;;;8.93;3.97;;;16.30;99.90;;;;;;5062879;28;20044;-70
2022/08/24 05:08:45;;;;;;;4.22;3.60;;;16.40;99.90;;;;;;5071256;28;20036;-71
2022/08/24 05:11:12;;;;;;;5.90;3.58;;;16.40;99.90;;;;;;5065992;28;20035;-71
2022/08/24 05:13:38;;;;;;;5.63;3.38;;;16.50;99.90;;;;;;5064745;28;20543;-70
2022/08/24 05:16:10;;;;;;;4.65;3.60;;;16.60;99.90;;;;;;5061584;28;20103;-70
2022/08/24 05:18:36;;;;;;;6.00;4.43;;;16.60;99.90;;;;;;5063160;28;20131;-72
2022/08/24 05:21:07;;;;;;;4.25;3.72;;;16.70;99.90;;;;;;5070310;28;20102;-75
2022/08/24 05:23:34;;;;;;;6.22;3.92;;;16.80;99.90;;;;;;5072332;28;20044;-74
2022/08/24 05:26:09;;;;;;;5.70;3.97;;;16.90;99.90;;;;;;5063460;28;20063;-74
2022/08/24 05:28:35;;;;;;;4.30;3.60;;;17.10;99.90;;;;;;5071546;28;20474;-73
2022/08/24 05:31:17;;;;;;;6.85;3.78;;;17.20;99.90;;;;;;5062232;28;20024;-72
2022/08/24 05:33:43;;;;;;;4.75;3.72;;;17.30;99.90;;;;;;5060480;28;20466;-71
2022/08/24 05:36:27;;;;;;;5.88;3.60;;;17.50;99.90;;;;;;5065654;28;20047;-72
2022/08/24 05:38:55;;;;;;;6.00;4.18;;;17.60;99.90;;;;;;5064315;28;20031;-73
2022/08/24 05:41:21;;;;;;;7.05;4.75;;;17.80;99.90;;;;;;5059630;28;20033;-75
2022/08/24 05:43:48;;;;;;;6.22;4.43;;;17.90;99.90;;;;;;5071384;28;20029;-84
2022/08/24 05:46:14;;;;;;;7.25;4.50;;;18.00;99.90;;;;;;5064464;28;20082;-74
2022/08/24 05:48:40;;;;;;;11.40;4.20;;;18.10;99.90;;;;;;5065674;28;20051;-74
2022/08/24 05:51:07;;;;;;;7.30;4.63;;;18.20;99.90;;;;;;5072045;28;20021;-74
2022/08/24 05:53:34;;;;;;;5.20;4.25;;;18.30;99.90;;;;;;5068242;28;20025;-74
2022/08/24 05:56:12;;;;;;;9.73;4.93;;;18.40;99.90;;;;;;5068742;28;20016;-73
2022/08/24 05:58:38;;;;;;;4.60;4.20;;;18.60;99.90;;;;;;5062997;28;20041;-73
2022/08/24 06:01:09;;;;;;;9.20;4.60;;;18.70;99.90;;;;;;5064468;28;20032;-73
2022/08/24 06:03:35;;;;;;;7.90;4.53;;;18.70;99.90;;;;;;5062340;28;20382;-73
2022/08/24 06:06:03;;;;;;;6.38;4.47;;;18.70;99.90;;;;;;5068493;28;20025;-74
2022/08/24 06:08:29;;;;;;;6.75;4.70;;;18.80;99.90;;;;;;5062833;28;20101;-74
2022/08/24 06:10:55;;;;;;;9.10;4.60;;;18.90;99.90;;;;;;5069919;28;20047;-74
2022/08/24 06:13:22;;;;;;;8.60;4.75;;;18.90;99.90;;;;;;5071029;28;20107;-73
2022/08/24 06:15:47;;;;;;;7.25;4.30;;;19.00;99.90;;;;;;5069663;28;20434;-72
2022/08/24 06:18:13;;;;;;;5.57;4.38;;;19.10;99.90;;;;;;5070727;28;20120;-72
2022/08/24 06:20:41;;;;;;;5.68;4.13;;;19.10;99.90;;;;;;5070817;28;20043;-73
2022/08/24 06:23:07;;;;;;;6.95;4.50;;;19.20;99.90;;;;;;5070643;28;20020;-73
2022/08/24 06:28:18;;;;;;;9.75;4.88;;;19.20;99.90;;;;;;5070972;28;20032;-73
2022/08/24 06:30:43;;;;;;;6.88;4.63;;;19.30;99.90;;;;;;5068970;28;20025;-73
2022/08/24 06:33:09;;;;;;;7.47;4.38;;;19.40;99.90;;;;;;5068549;28;20555;-74
2022/08/24 06:35:34;;;;;;;4.90;3.78;;;19.40;99.90;;;;;;5070108;28;20099;-73
2022/08/24 06:38:00;;;;;;;4.40;4.00;;;19.40;99.90;;;;;;5066346;28;20045;-72
2022/08/24 06:40:26;;;;;;;9.05;5.43;;;19.60;99.90;;;;;;5070254;28;20376;-73
2022/08/24 06:42:52;;;;;;;7.32;4.45;;;19.70;99.90;;;;;;5066805;28;20032;-74
2022/08/24 06:45:18;;;;;;;8.15;5.60;;;19.70;99.90;;;;;;5068422;28;20385;-73
2022/08/24 06:47:44;;;;;;;11.48;5.28;;;19.80;99.90;;;;;;5069113;28;20101;-73
2022/08/24 06:50:10;;;;;;;11.00;4.97;;;19.90;99.90;;;;;;5070072;28;20033;-73
2022/08/24 06:52:38;;;;;;;9.32;5.22;;;20.00;99.90;;;;;;5066733;28;20029;-74
2022/08/24 06:55:04;;;;;;;7.43;4.50;;;20.10;99.90;;;;;;5069558;28;20111;-73
2022/08/24 06:57:30;;;;;;;7.78;4.97;;;20.00;99.90;;;;;;5069642;28;20124;-73
2022/08/24 06:59:56;;;;;;;7.15;5.38;;;20.10;99.90;;;;;;5064329;28;20059;-73
2022/08/24 07:02:22;;;;;;;8.75;4.85;;;20.20;99.90;;;;;;5070040;28;20044;-73
2022/08/24 07:04:48;;;;;;;5.65;4.35;;;20.40;99.90;;;;;;5063297;28;20103;-73
2022/08/24 07:07:14;;;;;;;8.27;4.18;;;20.50;99.90;;;;;;5070598;28;20477;-73
2022/08/24 07:09:40;;;;;;;5.70;4.68;;;20.60;99.90;;;;;;5070118;28;20036;-73
2022/08/24 07:12:06;;;;;;;6.65;4.30;;;20.70;99.90;;;;;;5061947;28;20081;-73
2022/08/24 07:14:32;;;;;;;8.05;4.22;;;20.90;99.90;;;;;;5069730;28;20040;-73
2022/08/24 07:16:57;;;;;;;10.30;5.10;;;21.10;99.90;;;;;;5050044;28;20032;-73
2022/08/24 07:19:24;;;;;;;6.18;4.97;;;21.30;99.90;;;;;;5067932;28;20102;-72
2022/08/24 07:21:50;;;;;;;10.05;4.85;;;21.40;99.90;;;;;;5069447;28;20049;-72
2022/08/24 07:24:15;;;;;;;10.98;5.30;;;21.50;99.90;;;;;;5064375;28;20029;-72
2022/08/24 07:26:41;;;;;;;6.65;4.68;;;21.60;99.90;;;;;;5065436;28;20039;-73
2022/08/24 07:29:14;;;;;;;12.50;5.50;;;21.70;99.90;;;;;;5067235;28;20067;-73
2022/08/24 07:31:41;;;;;;;7.60;4.45;;;21.70;99.90;;;;;;5069462;28;20017;-73
2022/08/24 07:34:08;;;;;;;12.15;5.03;;;21.80;99.90;;;;;;5069544;28;20017;-73
2022/08/24 07:36:36;;;;;;;11.73;4.88;;;21.90;99.90;;;;;;5064653;28;20094;-72
2022/08/24 07:39:03;;;;;;;7.70;4.60;;;22.00;99.90;;;;;;5069427;28;20032;-73
2022/08/24 07:41:30;;;;;;;9.25;5.00;;;22.10;98.60;;;;;;5069983;28;20025;-73
2022/08/24 07:43:56;;;;;;;12.32;4.40;;;22.20;98.60;;;;;;5069142;28;20025;-72
2022/08/24 07:46:22;;;;;;;8.50;4.97;;;22.30;98.20;;;;;;5063160;28;20044;-72
2022/08/24 07:48:47;;;;;;;7.22;4.40;;;22.40;97.90;;;;;;5072588;28;20066;-73
2022/08/24 07:51:16;;;;;;;10.68;4.78;;;22.50;97.70;;;;;;5074010;28;20056;-73
2022/08/24 07:53:43;;;;;;;6.82;3.90;;;22.70;97.10;;;;;;5073305;28;20024;-72
2022/08/24 07:56:11;;;;;;;5.57;3.60;;;22.90;96.90;;;;;;5073073;28;20067;-73
2022/08/24 07:58:37;;;;;;;8.20;3.80;;;23.10;95.80;;;;;;5070765;28;20036;-73
2022/08/24 08:01:04;;;;;;;7.88;3.92;;;23.20;95.40;;;;;;5070388;28;20025;-73
2022/08/24 08:03:32;;;;;;;6.18;3.40;;;23.50;94.90;;;;;;5063111;28;20037;-73
2022/08/24 08:06:01;;;;;;;10.43;3.75;;;23.60;93.50;;;;;;5069791;28;20355;-72
2022/08/24 08:08:28;;;;;;;5.82;3.10;;;23.60;93.00;;;;;;5073284;28;20454;-72
2022/08/24 08:10:53;;;;;;;5.57;2.80;;;23.60;92.50;;;;;;5069628;28;20441;-72
2022/08/24 08:13:19;;;;;;;5.10;3.42;;;23.70;92.50;;;;;;5070106;28;20024;-73
2022/08/24 08:15:45;;;;;;;4.28;2.58;;;23.80;91.80;;;;;;5072194;28;20033;-73
2022/08/24 08:18:12;;;;;;;7.35;2.17;;;23.90;91.40;;;;;;5073648;28;20047;-73
2022/08/24 08:20:39;;;;;;;8.20;2.70;;;24.00;91.30;;;;;;5073555;28;20033;-73
2022/08/24 08:25:53;;;;;;;2.97;2.60;;;24.20;90.30;;;;;;5066800;28;20092;-72
2022/08/24 08:28:19;;;;;;;5.65;2.67;;;24.20;90.80;;;;;;5073042;28;20108;-73
2022/08/24 08:30:45;;;;;;;4.50;2.75;;;24.20;90.40;;;;;;5072428;28;20029;-73
2022/08/24 08:33:11;;;;;;;3.75;2.53;;;24.20;90.10;;;;;;5073309;28;20024;-74
2022/08/24 08:35:38;;;;;;;4.20;2.50;;;24.40;89.80;;;;;;5065096;28;20394;-73
2022/08/24 08:38:05;;;;;;;3.15;2.17;;;24.50;89.20;;;;;;5069345;28;20059;-73
2022/08/24 08:40:59;;;;;;;4.25;2.15;;;24.60;87.20;;;;;;5073128;28;20059;-73
2022/08/24 08:43:43;;;;;;;2.75;1.83;;;24.80;86.80;;;;;;5065162;28;20039;-73
2022/08/24 08:46:33;;;;;;;2.97;2.15;;;25.00;84.70;;;;;;5073225;28;20033;-74
2022/08/24 08:49:36;;;;;;;6.88;2.17;;;25.20;84.60;;;;;;5070087;28;20135;-74
2022/08/24 08:52:08;;;;;;;4.30;2.28;;;25.40;82.70;;;;;;5040385;28;20035;-74
2022/08/24 08:54:54;;;;;;;4.35;2.30;;;25.60;81.30;;;;;;5072802;28;20107;-73
2022/08/24 08:57:50;;;;;;;4.90;2.00;;;25.60;79.90;;;;;;5065989;28;20079;-73
2022/08/24 09:00:21;;;;;;;5.43;2.00;;;25.70;80.30;;;;;;5066687;28;20161;-72
2022/08/24 09:03:20;;;;;;;5.30;2.30;;;25.90;80.10;;;;;;5072200;28;20107;-73
2022/08/24 09:06:29;;;;;;;7.10;2.20;;;26.00;79.30;;;;;;5065571;28;20051;-73
2022/08/24 09:09:19;;;;;;;4.70;2.20;;;26.00;78.30;;;;;;5070841;28;20028;-73
2022/08/24 09:12:17;;;;;;;4.07;2.33;;;26.10;77.80;;;;;;5065935;28;20099;-73
2022/08/24 09:14:52;;;;;;;3.97;2.45;;;26.10;77.90;;;;;;5070096;28;20427;-73
2022/08/24 09:17:46;;;;;;;5.03;2.80;;;26.20;78.20;;;;;;5051890;28;20433;-73
2022/08/24 09:20:41;;;;;;;6.22;2.35;;;26.30;76.20;;;;;;5066635;28;20050;-73
2022/08/24 09:23:12;;;;;;;4.43;2.67;;;26.30;75.50;;;;;;5066530;28;20025;-73
2022/08/24 09:26:18;;;;;;;4.95;2.15;;;26.40;75.70;;;;;;5072074;28;20029;-73
2022/08/24 09:29:09;;;;;;;3.67;2.25;;;26.40;75.00;;;;;;5063172;28;20385;-73
2022/08/24 09:31:51;;;;;;;6.72;2.42;;;26.60;75.40;;;;;;5072081;28;20040;-73
2022/08/24 09:34:45;;;;;;;4.63;2.17;;;26.80;73.80;;;;;;5072480;28;20029;-73
2022/08/24 09:37:30;;;;;;;3.85;2.30;;;27.00;73.20;;;;;;5056865;28;20056;-74
2022/08/24 09:40:00;;;;;;;1.80;1.27;;;27.10;72.30;;;;;;5070829;28;20036;-73
2022/08/24 09:42:26;;;;;;;4.45;1.60;;;27.30;70.20;;;;;;5070915;28;20112;-74
2022/08/24 09:44:57;;;;;;;2.42;1.60;;;27.30;71.20;;;;;;5066694;28;20103;-74
2022/08/24 09:47:47;;;;;;;2.72;1.38;;;27.40;70.60;;;;;;5071689;28;20033;-73
2022/08/24 09:50:31;;;;;;;;;;;27.70;70.70;;;;;;5064054;28;20166;-74
2022/08/24 09:53:26;;;;;;;2.83;1.70;;;27.90;69.40;;;;;;5070224;28;19954;-72
2022/08/24 09:56:09;;;;;;;2.20;1.45;;;28.10;68.30;;;;;;5064396;28;20064;-71
2022/08/24 09:59:12;;;;;;;2.08;1.50;;;28.30;68.20;;;;;;5068345;28;20036;-74
2022/08/24 10:02:05;;;;;;;1.70;1.60;;;28.30;66.60;;;;;;5064761;28;20035;-71
2022/08/24 10:04:49;;;;;;;2.22;1.45;;;28.40;66.70;;;;;;5069097;28;20039;-71
2022/08/24 10:07:34;;;;;;;3.60;1.50;;;28.30;67.30;;;;;;5061200;28;20163;-71
2022/08/24 10:10:14;;;;;;;1.67;1.48;;;28.20;67.10;;;;;;5070247;28;20078;-70
2022/08/24 10:12:49;;;;;;;4.38;1.67;;;28.30;66.90;;;;;;5068887;28;20568;-71
2022/08/24 10:15:56;;;;;;;5.85;1.52;;;28.40;67.00;;;;;;5070141;28;20492;-71
2022/08/24 10:18:40;;;;;;;5.85;1.77;;;28.60;66.30;;;;;;5059087;28;20040;-73
2022/08/24 10:21:17;;;;;;;1.75;1.60;;;28.60;66.40;;;;;;5069085;28;20086;-72
2022/08/24 10:23:57;;;;;;;3.65;1.73;;;28.60;66.00;;;;;;5075708;28;20469;-71
2022/08/24 10:27:08;;;;;;;3.97;1.80;;;28.60;66.20;;;;;;5073197;28;20465;-73
2022/08/24 10:29:52;;;;;;;1.90;1.75;;;28.70;66.50;;;;;;5067594;28;20119;-73
2022/08/24 10:32:36;;;;;;;2.22;2.03;;;28.80;65.80;;;;;;5079525;28;20493;-73
2022/08/24 10:35:11;;;;;;;3.10;2.20;;;29.10;65.60;;;;;;5077951;28;20211;-73
2022/08/24 10:41:01;;;;;;;4.75;1.60;;;29.30;65.50;;;;;;5070900;28;20024;-72
2022/08/24 10:43:50;;;;;;;3.28;2.58;;;29.40;65.00;;;;;;5078662;28;20045;-72
2022/08/24 10:46:44;;;;;;;2.05;1.70;;;29.50;64.40;;;;;;5071421;28;20367;-73
2022/08/24 10:49:35;;;;;;;3.63;1.60;;;29.40;64.70;;;;;;5069961;28;20048;-75
2022/08/24 10:52:19;;;;;;;2.83;1.55;;;29.50;65.80;;;;;;5068112;28;20036;-72
2022/08/24 10:54:45;;;;;;;1.83;1.73;;;29.50;65.20;;;;;;5070346;28;20050;-71
2022/08/24 10:57:29;;;;;;;2.13;1.58;;;29.70;65.20;;;;;;5070115;28;20032;-74
2022/08/24 11:00:02;;;;;;;5.63;1.95;;;29.90;63.90;;;;;;5070645;28;20029;-72
2022/08/24 11:02:29;;;;;;;1.88;1.77;;;30.10;63.70;;;;;;5065271;28;20036;-73
2022/08/24 11:04:58;;;;;;;1.80;1.70;;;30.20;62.80;;;;;;5063532;28;20024;-73
2022/08/24 11:07:24;;;;;;;4.10;1.65;;;30.30;62.90;;;;;;5067060;28;20493;-74
2022/08/24 11:09:55;;;;;;;3.15;1.90;;;30.60;62.30;;;;;;5063329;28;20024;-72
2022/08/24 11:12:24;;;;;;;3.15;1.67;;;30.60;62.00;;;;;;5066916;28;20077;-72
2022/08/24 11:14:51;;;;;;;3.85;1.70;;;30.40;61.80;;;;;;5063498;28;20592;-72
2022/08/24 11:17:22;;;;;;;3.95;2.03;;;30.20;62.30;;;;;;5072358;28;20020;-71
2022/08/24 11:19:50;;;;;;;1.60;1.50;;;30.40;62.20;;;;;;5062002;28;20110;-71
2022/08/24 11:22:56;;;;;;;4.63;1.70;;;30.40;62.30;;;;;;5066702;28;20420;-71
2022/08/24 11:25:26;;;;;;;3.80;1.83;;;30.50;61.90;;;;;;5070319;28;20028;-72
2022/08/24 11:28:01;;;;;;;1.30;1.20;;;30.80;61.00;;;;;;5073704;28;20044;-71
2022/08/24 11:30:28;;;;;;;1.63;1.52;;;31.10;61.00;;;;;;5069922;28;20355;-72
2022/08/24 11:33:02;;;;;;;2.78;1.70;;;31.20;60.40;;;;;;5070500;28;20044;-73
2022/08/24 11:35:31;;;;;;;2.75;1.77;;;31.20;60.50;;;;;;5071073;28;20033;-72
2022/08/24 11:38:18;;;;;;;1.73;1.55;;;31.20;59.50;;;;;;5074555;28;20052;-71
2022/08/24 11:40:51;;;;;;;2.33;1.50;;;31.30;59.90;;;;;;5074159;28;20454;-71
2022/08/24 11:43:17;;;;;;;1.52;1.42;;;31.40;58.90;;;;;;5072888;28;20029;-71
2022/08/24 11:45:42;;;;;;;3.60;1.33;;;31.50;58.80;;;;;;5065164;28;20024;-70
2022/08/24 11:48:36;;;;;;;1.40;1.30;;;31.70;57.70;;;;;;5073100;28;20119;-71
2022/08/24 11:51:31;;;;;;;2.70;1.70;;;31.80;57.90;;;;;;5064986;28;20044;-72
2022/08/24 11:54:29;;;;;;;2.40;1.98;;;31.90;57.80;;;;;;5071055;28;20111;-72
2022/08/24 11:57:07;;;;;;;2.53;1.40;;;32.00;56.60;;;;;;5055785;28;20059;-72
2022/08/24 11:59:38;;;;;;;1.60;1.50;;;32.00;56.00;;;;;;5073503;28;20037;-71
2022/08/24 12:02:09;;;;;;;1.38;1.10;;;32.00;56.00;;;;;;5069237;28;20040;-71
2022/08/24 12:04:54;;;;;;;1.48;1.40;;;31.90;56.00;;;;;;5052616;28;20440;-71
2022/08/24 12:07:38;;;;;;;1.88;1.67;;;32.00;55.60;;;;;;5070689;28;20050;-72
2022/08/24 12:10:26;;;;;;;2.92;1.40;;;32.10;55.40;;;;;;5066913;28;20090;-72
2022/08/24 12:13:05;;;;;;;2.00;1.50;;;32.20;55.30;;;;;;5072746;28;20119;-72
2022/08/24 12:16:06;;;;;;;1.45;1.35;;;32.30;55.20;;;;;;5072856;28;20032;-71
2022/08/24 12:18:49;;;;;;;1.73;1.50;;;32.40;55.40;;;;;;5030910;28;20041;-71
2022/08/24 12:21:18;;;;;;;1.48;1.38;;;32.40;55.70;;;;;;5067858;28;20447;-71
2022/08/24 12:23:50;;;;;;;3.47;1.50;;;32.40;55.50;;;;;;5067296;28;20021;-71
2022/08/24 12:26:31;;;;;;;1.50;1.40;;;32.50;54.90;;;;;;5066730;28;20067;-71
2022/08/24 12:29:16;;;;;;;3.03;1.30;;;32.50;54.20;;;;;;5069136;28;20108;-72
2022/08/24 12:31:55;;;;;;;3.85;1.48;;;32.40;54.00;;;;;;5072347;28;20044;-71
2022/08/24 12:34:46;;;;;;;1.63;1.43;;;32.50;54.20;;;;;;5072435;28;20048;-72
2022/08/24 12:37:26;;;;;;;1.27;1.17;;;32.60;54.20;;;;;;5072257;28;20543;-72
2022/08/24 12:40:03;;;;;;;2.35;1.15;;;32.70;54.00;;;;;;5072111;28;20038;-72
2022/08/24 12:42:42;;;;;;;2.00;1.42;;;32.90;53.70;;;;;;5072070;28;20025;-72
2022/08/24 12:45:12;;;;;;;1.40;1.30;;;32.90;53.20;;;;;;5072481;28;20037;-72
2022/08/24 12:47:53;;;;;;;1.92;1.48;;;33.00;52.20;;;;;;5071347;28;20041;-72
2022/08/24 12:50:31;;;;;;;2.45;1.50;;;33.00;52.20;;;;;;5067887;28;20036;-72
2022/08/24 12:53:00;;;;;;;4.22;1.60;;;32.80;52.00;;;;;;5072359;28;20111;-72
2022/08/24 12:55:49;;;;;;;1.88;1.67;;;32.80;52.20;;;;;;5072106;28;20104;-72
2022/08/24 12:58:49;;;;;;;1.50;1.40;;;32.50;52.90;;;;;;5070755;28;20120;-72
2022/08/24 13:01:16;;;;;;;1.70;1.35;;;32.30;52.30;;;;;;5071714;28;20032;-71
2022/08/24 13:03:45;;;;;;;1.58;1.48;;;32.30;52.30;;;;;;5072012;28;20485;-71
2022/08/24 13:06:26;;;;;;;2.42;1.55;;;32.30;52.10;;;;;;5064507;28;20037;-72
2022/08/24 13:09:06;;;;;;;1.70;1.60;;;32.40;52.20;;;;;;5046396;28;20143;-72
2022/08/24 13:11:33;;;;;;;2.25;1.63;;;32.40;52.10;;;;;;5072637;28;20466;-72
2022/08/24 13:14:11;;;;;;;3.72;1.65;;;32.50;52.10;;;;;;5071618;28;20499;-72
2022/08/24 13:16:54;;;;;;;1.13;1.13;;;32.60;51.20;;;;;;5071977;28;20039;-72
2022/08/24 13:19:25;;;;;;;1.40;1.30;;;32.70;52.00;;;;;;5068942;28;20047;-72
2022/08/24 13:22:11;;;;;;;1.33;1.23;;;32.70;51.20;;;;;;5071284;28;20028;-70
2022/08/24 13:24:43;;;;;;;2.00;1.80;;;32.80;50.90;;;;;;5069969;28;20040;-72